Time;durP1;ratioP1;P1;durP2;ratioP2;P2;SDS_P1;SDS_P2;PMS_P1;PMS_P2;Temp;Humidity;BMP_temperature;BMP_pressure;BME280_temperature;BME280_humidity;BME280_pressure;Samples;Min_cycle;Max_cycle;Signal;HPM_P1;HPM_P2
2022/09/09 00:00:33;;;;;;;5.30;1.70;;;;;;;;;;5112013;28;20022;-74
2022/09/09 00:03:28;;;;;;;2.90;1.40;;;;;;;;;;5112167;28;20023;-74
2022/09/09 00:06:11;;;;;;;5.22;2.00;;;;;;;;;;5090270;28;20461;-74
2022/09/09 00:08:37;;;;;;;;;;;;;;;;;;5112263;28;20415;-74
2022/09/09 00:11:05;;;;;;;5.32;2.15;;;;;;;;;;5111597;28;19956;-74
2022/09/09 00:13:37;;;;;;;6.75;2.20;;;;;;;;;;5111560;28;20201;-74
2022/09/09 00:16:12;;;;;;;6.68;2.55;;;;;;;;;;5111618;28;20485;-75
2022/09/09 00:18:53;;;;;;;7.78;3.65;;;;;;;;;;5111599;28;20039;-74
2022/09/09 00:21:19;;;;;;;5.60;2.75;;;;;;;;;;5111640;28;20115;-75
2022/09/09 00:23:49;;;;;;;6.88;3.58;;;;;;;;;;5111458;28;20402;-74
2022/09/09 00:26:20;;;;;;;6.03;2.90;;;;;;;;;;5111733;28;20358;-74
2022/09/09 00:28:51;;;;;;;6.68;3.35;;;;;;;;;;5112826;28;20016;-74
2022/09/09 00:31:21;;;;;;;4.72;2.80;;;;;;;;;;5115750;28;20027;-74
2022/09/09 00:33:47;;;;;;;9.85;3.20;;;;;;;;;;5116098;28;20106;-74
2022/09/09 00:36:17;;;;;;;5.90;3.53;;;;;;;;;;5115808;28;20102;-74
2022/09/09 00:38:51;;;;;;;4.88;3.47;;;;;;;;;;5115778;28;20444;-74
2022/09/09 00:41:20;;;;;;;9.40;4.22;;;;;;;;;;5115607;28;20055;-74
2022/09/09 00:43:50;;;;;;;8.05;4.15;;;;;;;;;;5097073;28;20762;-74
2022/09/09 00:46:19;;;;;;;7.43;4.50;;;;;;;;;;5115615;28;20024;-74
2022/09/09 00:48:45;;;;;;;10.43;4.40;;;;;;;;;;5115469;28;20042;-74
2022/09/09 00:51:26;;;;;;;12.48;6.20;;;;;;;;;;5115723;28;20035;-74
2022/09/09 00:53:55;;;;;;;8.50;5.50;;;;;;;;;;5115410;28;20040;-74
2022/09/09 00:56:24;;;;;;;9.50;5.68;;;;;;;;;;5115213;27;20038;-74
2022/09/09 00:58:58;;;;;;;7.55;5.30;;;;;;;;;;5115275;28;20425;-74
2022/09/09 01:01:24;;;;;;;7.95;5.20;;;;;;;;;;5115008;28;20028;-74
2022/09/09 01:03:54;;;;;;;10.80;6.05;;;;;;;;;;5115197;28;20026;-74
2022/09/09 01:06:30;;;;;;;11.48;5.78;;;;;;;;;;5115188;28;20015;-74
2022/09/09 01:09:05;;;;;;;12.35;6.50;;;;;;;;;;5115075;28;20090;-74
2022/09/09 01:11:38;;;;;;;8.43;5.30;;;;;;;;;;5114916;28;20071;-74
2022/09/09 01:14:28;;;;;;;12.00;6.20;;;;;;;;;;5114991;28;20042;-74
2022/09/09 01:16:56;;;;;;;8.68;6.18;;;;;;;;;;5067540;28;20040;-74
2022/09/09 01:19:39;;;;;;;14.15;6.10;;;;;;;;;;5114995;28;20058;-74
2022/09/09 01:22:10;;;;;;;9.68;6.22;;;;;;;;;;5115074;28;20023;-74
2022/09/09 01:24:43;;;;;;;10.82;5.97;;;;;;;;;;5114845;28;20031;-74
2022/09/09 01:27:10;;;;;;;9.45;5.32;;;;;;;;;;5114882;28;20028;-74
2022/09/09 01:29:36;;;;;;;10.07;6.10;;;;;;;;;;5114712;28;20057;-74
2022/09/09 01:32:21;;;;;;;8.95;4.93;;;;;;;;;;5114656;28;20019;-74
2022/09/09 01:34:47;;;;;;;12.48;6.20;;;;;;;;;;5114762;28;20028;-74
2022/09/09 01:37:13;;;;;;;13.55;5.85;;;;;;;;;;5114640;28;20019;-74
2022/09/09 01:39:40;;;;;;;9.70;5.35;;;;;;;;;;5113776;28;20029;-74
2022/09/09 01:42:08;;;;;;;8.82;5.18;;;;;;;;;;5113736;28;20027;-74
2022/09/09 01:44:35;;;;;;;8.40;5.43;;;;;;;;;;5095928;28;20362;-74
2022/09/09 01:47:01;;;;;;;9.48;5.20;;;;;;;;;;5114251;28;20012;-74
2022/09/09 01:49:27;;;;;;;9.52;5.57;;;;;;;;;;5114200;28;20100;-74
2022/09/09 01:51:54;;;;;;;9.23;5.35;;;;;;;;;;5114718;28;20034;-74
2022/09/09 01:54:22;;;;;;;14.10;5.55;;;;;;;;;;5114276;28;20057;-75
2022/09/09 01:56:56;;;;;;;10.88;5.78;;;;;;;;;;5114172;28;20020;-74
2022/09/09 01:59:34;;;;;;;9.90;4.97;;;;;;;;;;5114149;28;20016;-74
2022/09/09 02:02:15;;;;;;;13.20;5.78;;;;;;;;;;5114098;28;20644;-74
2022/09/09 02:04:49;;;;;;;10.23;5.50;;;;;;;;;;5114139;28;20039;-74
2022/09/09 02:07:34;;;;;;;8.38;5.15;;;;;;;;;;5114086;28;20020;-74
2022/09/09 02:10:10;;;;;;;8.65;4.88;;;;;;;;;;5113716;28;20019;-74
2022/09/09 02:12:36;;;;;;;11.60;5.45;;;;;;;;;;5113656;28;20046;-74
2022/09/09 02:15:09;;;;;;;8.45;5.25;;;;;;;;;;5113573;28;20031;-74
2022/09/09 02:17:35;;;;;;;;;;;;;;;;;;5114207;28;20019;-74
2022/09/09 02:20:04;;;;;;;11.60;5.20;;;;;;;;;;5113511;28;20006;-74
2022/09/09 02:22:34;;;;;;;8.05;5.00;;;;;;;;;;5113617;28;20058;-74
2022/09/09 02:25:01;;;;;;;8.52;4.72;;;;;;;;;;5113495;28;20444;-74
2022/09/09 02:27:27;;;;;;;10.23;5.03;;;;;;;;;;5113673;28;20097;-74
2022/09/09 02:29:54;;;;;;;10.02;5.13;;;;;;;;;;5113350;28;20478;-74
2022/09/09 02:32:24;;;;;;;10.35;4.90;;;;;;;;;;5113537;28;20031;-74
2022/09/09 02:34:54;;;;;;;8.98;5.05;;;;;;;;;;5113544;28;20084;-74
2022/09/09 02:37:22;;;;;;;11.23;4.60;;;;;;;;;;5113506;28;20092;-74
2022/09/09 02:39:48;;;;;;;9.93;4.95;;;;;;;;;;5113165;28;20054;-74
2022/09/09 02:42:14;;;;;;;9.32;4.80;;;;;;;;;;5113482;28;20027;-74
2022/09/09 02:44:41;;;;;;;8.63;5.53;;;;;;;;;;5113364;28;20034;-74
2022/09/09 02:47:16;;;;;;;6.55;4.97;;;;;;;;;;5113121;28;20023;-74
2022/09/09 02:49:43;;;;;;;8.43;5.43;;;;;;;;;;5113060;28;20028;-74
2022/09/09 02:52:11;;;;;;;8.35;5.60;;;;;;;;;;5113116;28;20036;-74
2022/09/09 02:54:41;;;;;;;12.30;5.28;;;;;;;;;;5113039;28;20028;-74
2022/09/09 02:57:11;;;;;;;8.52;5.43;;;;;;;;;;5094446;28;20026;-74
2022/09/09 02:59:37;;;;;;;9.48;5.40;;;;;;;;;;5112813;28;20438;-74
2022/09/09 03:02:04;;;;;;;8.15;4.90;;;;;;;;;;5112920;28;20031;-74
2022/09/09 03:04:31;;;;;;;11.75;5.30;;;;;;;;;;5112858;28;20015;-74
2022/09/09 03:06:57;;;;;;;10.60;5.28;;;;;;;;;;5112832;28;20020;-74
2022/09/09 03:09:23;;;;;;;8.75;4.70;;;;;;;;;;5112704;28;20055;-74
2022/09/09 03:11:49;;;;;;;11.05;5.15;;;;;;;;;;5112515;28;20535;-74
2022/09/09 03:14:15;;;;;;;9.65;5.55;;;;;;;;;;5112687;28;20458;-74
2022/09/09 03:16:42;;;;;;;8.98;5.30;;;;;;;;;;5094139;28;20023;-74
2022/09/09 03:19:09;;;;;;;8.48;4.57;;;;;;;;;;5112633;28;20417;-74
2022/09/09 03:21:35;;;;;;;8.48;4.95;;;;;;;;;;5112590;28;20139;-74
2022/09/09 03:24:03;;;;;;;15.50;5.47;;;;;;;;;;5112479;28;20020;-74
2022/09/09 03:26:30;;;;;;;8.40;5.05;;;;;;;;;;5093993;28;20432;-74
2022/09/09 03:28:56;;;;;;;11.93;5.40;;;;;;;;;;5112423;28;20031;-74
2022/09/09 03:31:22;;;;;;;8.70;4.85;;;;;;;;;;5112274;28;20110;-74
2022/09/09 03:33:48;;;;;;;11.05;5.65;;;;;;;;;;5112377;28;20049;-74
2022/09/09 03:36:14;;;;;;;9.25;5.00;;;;;;;;;;5112392;28;20028;-74
2022/09/09 03:38:41;;;;;;;8.93;5.10;;;;;;;;;;5111952;28;20032;-74
2022/09/09 03:41:07;;;;;;;11.93;5.45;;;;;;;;;;5112026;28;20027;-74
2022/09/09 03:43:34;;;;;;;8.35;5.15;;;;;;;;;;5112122;28;20047;-74
2022/09/09 03:46:00;;;;;;;10.10;5.55;;;;;;;;;;5112014;28;20073;-74
2022/09/09 03:48:27;;;;;;;9.63;5.43;;;;;;;;;;5111995;28;20076;-74
2022/09/09 03:50:55;;;;;;;10.93;5.70;;;;;;;;;;5112217;28;20028;-74
2022/09/09 03:53:24;;;;;;;9.65;6.20;;;;;;;;;;5111981;28;20040;-74
2022/09/09 03:55:54;;;;;;;11.23;6.32;;;;;;;;;;5112042;28;20024;-75
2022/09/09 03:58:21;;;;;;;9.93;6.38;;;;;;;;;;5111840;28;20102;-74
2022/09/09 04:00:57;;;;;;;14.38;7.90;;;;;;;;;;5111555;28;20054;-74
2022/09/09 04:03:24;;;;;;;9.45;5.88;;;;;;;;;;5111006;28;20032;-74
2022/09/09 04:05:51;;;;;;;14.68;6.30;;;;;;;;;;5111807;28;20072;-74
2022/09/09 04:08:18;;;;;;;12.45;6.03;;;;;;;;;;5111706;28;20027;-74
2022/09/09 04:10:46;;;;;;;11.68;6.53;;;;;;;;;;5111560;28;20367;-74
2022/09/09 04:13:15;;;;;;;11.18;6.60;;;;;;;;;;5089551;28;20502;-74
2022/09/09 04:15:41;;;;;;;12.50;6.20;;;;;;;;;;5091099;28;20031;-74
2022/09/09 04:18:07;;;;;;;12.15;6.22;;;;;;;;;;5090910;28;20073;-74
2022/09/09 04:20:33;;;;;;;11.43;5.43;;;;;;;;;;5091145;28;20115;-74
2022/09/09 04:23:00;;;;;;;14.57;6.45;;;;;;;;;;5091175;28;20374;-74
2022/09/09 04:25:25;;;;;;;12.68;5.78;;;;;;;;;;5091155;28;20039;-74
2022/09/09 04:27:58;;;;;;;16.10;7.38;;;;;;;;;;5091260;28;20432;-74
2022/09/09 04:30:24;;;;;;;;;;;;;;;;;;5091455;28;20053;-74
2022/09/09 04:32:50;;;;;;;10.68;5.47;;;;;;;;;;5091202;28;19991;-74
2022/09/09 04:35:16;;;;;;;10.93;5.35;;;;;;;;;;5091152;28;20028;-74
2022/09/09 04:37:42;;;;;;;13.65;5.80;;;;;;;;;;5091092;28;20028;-74
2022/09/09 04:40:11;;;;;;;8.43;4.97;;;;;;;;;;5090915;28;20070;-74
2022/09/09 04:42:38;;;;;;;9.70;5.82;;;;;;;;;;5111541;28;20024;-74
2022/09/09 04:45:04;;;;;;;11.07;5.68;;;;;;;;;;5111210;28;20016;-74
2022/09/09 04:47:30;;;;;;;20.20;5.30;;;;;;;;;;5111262;28;20024;-74
2022/09/09 04:49:57;;;;;;;10.85;5.00;;;;;;;;;;5111166;28;20366;-74
2022/09/09 04:52:23;;;;;;;9.85;4.72;;;;;;;;;;5111387;28;20031;-74
2022/09/09 04:54:49;;;;;;;11.38;5.40;;;;;;;;;;5110932;28;20024;-74
2022/09/09 04:57:15;;;;;;;9.77;4.30;;;;;;;;;;5111278;28;20034;-75
2022/09/09 04:59:41;;;;;;;9.15;5.18;;;;;;;;;;5111338;28;20047;-74
2022/09/09 05:02:07;;;;;;;10.52;4.85;;;;;;;;;;5092679;28;20019;-75
2022/09/09 05:04:33;;;;;;;13.95;5.18;;;;;;;;;;5111404;28;20023;-74
2022/09/09 05:06:59;;;;;;;9.02;5.07;;;;;;;;;;5111130;28;20450;-74
2022/09/09 05:09:25;;;;;;;8.90;5.40;;;;;;;;;;5111191;28;20110;-75
2022/09/09 05:11:51;;;;;;;9.63;4.20;;;;;;;;;;5111150;28;20380;-74
2022/09/09 05:14:17;;;;;;;9.30;4.60;;;;;;;;;;5111413;28;20024;-74
2022/09/09 05:16:45;;;;;;;10.60;5.20;;;;;;;;;;5096438;28;20384;-75
2022/09/09 05:19:11;;;;;;;10.32;5.10;;;;;;;;;;5096531;28;20161;-74
2022/09/09 05:21:37;;;;;;;14.60;5.43;;;;;;;;;;5115049;28;20063;-74
2022/09/09 05:24:03;;;;;;;12.38;5.00;;;;;;;;;;5114886;28;20023;-74
2022/09/09 05:26:29;;;;;;;17.48;6.00;;;;;;;;;;5114685;28;20028;-74
2022/09/09 05:28:56;;;;;;;15.70;5.63;;;;;;;;;;5114753;28;20019;-74
2022/09/09 05:31:22;;;;;;;11.73;4.82;;;;;;;;;;5114633;28;20126;-74
2022/09/09 05:33:49;;;;;;;12.93;4.85;;;;;;;;;;5114526;28;20028;-75
2022/09/09 05:36:19;;;;;;;11.23;5.10;;;;;;;;;;5096372;28;20063;-75
2022/09/09 05:38:46;;;;;;;15.85;6.28;;;;;;;;;;5114391;28;20023;-74
2022/09/09 05:41:12;;;;;;;16.52;4.53;;;;;;;;;;5114336;28;20545;-75
2022/09/09 05:43:38;;;;;;;11.38;4.45;;;;;;;;;;5114476;28;20024;-74
2022/09/09 05:46:06;;;;;;;7.25;3.63;;;;;;;;;;5114412;28;20023;-75
2022/09/09 05:48:34;;;;;;;15.68;4.47;;;;;;;;;;5114395;28;20117;-74
2022/09/09 05:51:00;;;;;;;9.18;3.80;;;;;;;;;;5114430;28;20111;-74
2022/09/09 05:53:27;;;;;;;16.17;4.28;;;;;;;;;;5095859;28;20028;-75
2022/09/09 05:56:00;;;;;;;6.60;3.67;;;;;;;;;;5114076;28;20027;-74
2022/09/09 05:58:26;;;;;;;10.25;3.90;;;;;;;;;;5113982;28;20019;-74
2022/09/09 06:00:52;;;;;;;11.13;4.03;;;;;;;;;;5113838;28;20028;-74
2022/09/09 06:03:23;;;;;;;13.45;3.60;;;;;;;;;;5095590;28;20026;-75
2022/09/09 06:05:57;;;;;;;8.70;3.95;;;;;;;;;;5114102;28;20073;-74
2022/09/09 06:08:23;;;;;;;10.35;3.80;;;;;;;;;;5113837;28;20484;-74
2022/09/09 06:10:49;;;;;;;18.02;3.95;;;;;;;;;;5095385;28;20030;-75
2022/09/09 06:13:15;;;;;;;11.07;4.00;;;;;;;;;;5113478;28;20051;-74
2022/09/09 06:15:49;;;;;;;11.52;4.43;;;;;;;;;;5113774;28;20474;-74
2022/09/09 06:18:18;;;;;;;13.13;3.40;;;;;;;;;;5114009;28;20484;-75
2022/09/09 06:20:44;;;;;;;13.50;3.90;;;;;;;;;;5114092;28;20080;-75
2022/09/09 06:23:10;;;;;;;44.85;22.02;;;;;;;;;;5114059;28;20024;-75
2022/09/09 06:25:36;;;;;;;19.40;8.55;;;;;;;;;;5113821;28;20133;-75
2022/09/09 06:28:03;;;;;;;13.90;6.60;;;;;;;;;;5113327;28;20082;-74
2022/09/09 06:30:29;;;;;;;17.67;7.78;;;;;;;;;;5113947;28;20032;-75
2022/09/09 06:32:57;;;;;;;17.52;5.50;;;;;;;;;;5113940;28;20016;-75
2022/09/09 06:35:23;;;;;;;16.23;4.68;;;;;;;;;;5114146;28;20072;-74
2022/09/09 06:37:49;;;;;;;9.07;4.05;;;;;;;;;;5095565;28;20114;-75
2022/09/09 06:40:15;;;;;;;15.07;4.13;;;;;;;;;;5113691;28;20024;-75
2022/09/09 06:42:42;;;;;;;13.30;3.80;;;;;;;;;;5113791;28;20120;-75
2022/09/09 06:45:08;;;;;;;10.15;3.90;;;;;;;;;;5095151;28;20039;-75
2022/09/09 06:47:34;;;;;;;7.63;3.45;;;;;;;;;;5113541;28;20018;-75
2022/09/09 06:50:00;;;;;;;15.65;3.50;;;;;;;;;;5113571;28;20034;-75
2022/09/09 06:52:26;;;;;;;9.25;3.22;;;;;;;;;;5113992;28;20027;-75
2022/09/09 06:54:53;;;;;;;15.82;2.80;;;;;;;;;;5113370;28;20422;-75
2022/09/09 06:57:19;;;;;;;9.45;3.30;;;;;;;;;;5113342;28;20040;-74
2022/09/09 06:59:45;;;;;;;9.05;3.08;;;;;;;;;;5112958;28;20024;-75
2022/09/09 07:02:11;;;;;;;7.60;2.53;;;;;;;;;;5113335;28;20023;-75
2022/09/09 07:04:37;;;;;;;10.07;2.55;;;;;;;;;;5113197;28;20019;-75
2022/09/09 07:07:03;;;;;;;13.98;3.15;;;;;;;;;;5113302;28;20026;-75
2022/09/09 07:09:31;;;;;;;11.43;2.67;;;;;;;;;;5112950;28;20043;-75
2022/09/09 07:11:59;;;;;;;13.27;2.80;;;;;;;;;;5112843;28;20507;-75
2022/09/09 07:14:25;;;;;;;13.90;2.72;;;;;;;;;;5112981;28;20039;-75
2022/09/09 07:16:51;;;;;;;16.50;2.78;;;;;;;;;;5113057;28;20059;-75
2022/09/09 07:19:17;;;;;;;10.27;2.55;;;;;;;;;;5112779;28;20023;-75
2022/09/09 07:21:43;;;;;;;9.15;2.92;;;;;;;;;;5112829;28;20028;-75
2022/09/09 07:24:10;;;;;;;12.80;2.63;;;;;;;;;;5112802;28;20020;-75
2022/09/09 07:26:37;;;;;;;11.13;2.67;;;;;;;;;;5112658;28;20027;-75
2022/09/09 07:29:03;;;;;;;13.43;2.75;;;;;;;;;;5112812;28;20019;-75
2022/09/09 07:31:30;;;;;;;10.70;3.30;;;;;;;;;;5112803;28;20428;-75
2022/09/09 07:33:57;;;;;;;13.48;3.08;;;;;;;;;;5112663;28;20028;-75
2022/09/09 07:36:25;;;;;;;9.25;2.20;;;;;;;;;;5112682;28;20035;-75
2022/09/09 07:38:52;;;;;;;18.95;2.63;;;;;;;;;;5112333;28;20020;-75
2022/09/09 07:41:20;;;;;;;8.68;2.35;;;;;;;;;;5112485;28;20020;-75
2022/09/09 07:43:47;;;;;;;8.90;2.17;;;;;;;;;;5094096;28;20031;-75
2022/09/09 07:46:14;;;;;;;10.25;2.22;;;;;;;;;;5112271;28;20020;-75
2022/09/09 07:48:51;;;;;;;11.30;2.33;;;;;;;;;;5112401;28;20024;-75
2022/09/09 07:51:18;;;;;;;11.05;2.70;;;;;;;;;;5112212;28;20023;-76
2022/09/09 07:53:45;;;;;;;10.27;2.10;;;;;;;;;;5112197;28;20538;-75
2022/09/09 07:56:12;;;;;;;8.25;2.22;;;;;;;;;;5112249;28;20032;-75
2022/09/09 07:58:39;;;;;;;8.07;2.08;;;;;;;;;;5112101;28;20030;-75
2022/09/09 08:01:13;;;;;;;14.05;2.65;;;;;;;;;;5093638;28;20466;-75
2022/09/09 08:03:39;;;;;;;12.27;2.30;;;;;;;;;;5112267;28;20049;-75
2022/09/09 08:06:07;;;;;;;15.20;2.90;;;;;;;;;;5112223;28;20069;-75
2022/09/09 08:08:34;;;;;;;13.52;2.55;;;;;;;;;;5112090;28;20035;-75
2022/09/09 08:11:08;;;;;;;13.70;1.92;;;;;;;;;;5112218;28;20384;-75
2022/09/09 08:13:36;;;;;;;8.07;1.85;;;;;;;;;;5111967;28;20071;-76
2022/09/09 08:16:06;;;;;;;9.85;2.03;;;;;;;;;;5112019;28;20115;-75
2022/09/09 08:18:32;;;;;;;14.05;1.90;;;;;;;;;;5094435;28;20465;-75
2022/09/09 08:20:58;;;;;;;8.48;1.98;;;;;;;;;;5091471;28;20143;-75
2022/09/09 08:23:25;;;;;;;9.43;2.00;;;;;;;;;;5091503;28;20459;-76
2022/09/09 08:25:51;;;;;;;8.52;1.50;;;;;;;;;;5091490;28;20493;-75
2022/09/09 08:28:17;;;;;;;4.07;1.45;;;;;;;;;;5091526;28;20024;-75
2022/09/09 08:30:43;;;;;;;10.15;1.90;;;;;;;;;;5073123;28;20069;-76
2022/09/09 08:33:10;;;;;;;11.57;1.88;;;;;;;;;;5091558;28;20020;-75
2022/09/09 08:35:36;;;;;;;12.10;2.30;;;;;;;;;;5091069;28;20501;-75
2022/09/09 08:38:02;;;;;;;8.27;1.75;;;;;;;;;;5072862;28;20032;-75
2022/09/09 08:40:30;;;;;;;9.40;2.35;;;;;;;;;;5091201;28;20486;-76
2022/09/09 08:42:58;;;;;;;7.70;1.85;;;;;;;;;;5091298;28;20017;-75
2022/09/09 08:45:47;;;;;;;12.82;1.65;;;;;;;;;;5072777;28;20100;-76
2022/09/09 08:48:16;;;;;;;7.50;1.63;;;;;;;;;;5090686;28;20107;-76
2022/09/09 08:50:43;;;;;;;9.55;1.80;;;;;;;;;;5093934;28;20303;-75
2022/09/09 08:53:09;;;;;;;7.57;1.55;;;;;;;;;;5076959;28;20032;-76
2022/09/09 08:55:41;;;;;;;8.07;1.73;;;;;;;;;;5107686;28;20667;-76
2022/09/09 08:58:29;;;;;;;8.73;1.58;;;;;;;;;;5115444;28;20081;-76
2022/09/09 09:00:55;;;;;;;8.77;1.77;;;;;;;;;;5115194;28;20027;-75
2022/09/09 09:03:41;;;;;;;10.82;1.70;;;;;;;;;;5115315;28;20023;-76
2022/09/09 09:06:16;;;;;;;7.47;1.40;;;;;;;;;;5064340;28;20104;-76
2022/09/09 09:08:45;;;;;;;7.28;1.50;;;;;;;;;;5115334;28;20072;-76
2022/09/09 09:11:11;;;;;;;7.38;1.55;;;;;;;;;;5115256;28;20520;-76
2022/09/09 09:13:45;;;;;;;5.35;1.23;;;;;;;;;;5096710;28;20137;-76
2022/09/09 09:16:20;;;;;;;12.55;1.75;;;;;;;;;;5114984;28;20023;-76
2022/09/09 09:18:46;;;;;;;7.03;1.40;;;;;;;;;;5115058;28;20027;-76
2022/09/09 09:21:15;;;;;;;6.75;1.60;;;;;;;;;;5114939;28;20032;-76
2022/09/09 09:23:49;;;;;;;7.88;1.42;;;;;;;;;;5115003;28;20020;-75
2022/09/09 09:26:15;;;;;;;5.13;1.40;;;;;;;;;;5096429;28;20020;-76
2022/09/09 09:28:41;;;;;;;9.48;2.10;;;;;;;;;;5096625;28;20020;-76
2022/09/09 09:31:08;;;;;;;11.30;2.10;;;;;;;;;;5114864;28;20034;-76
2022/09/09 09:33:37;;;;;;;9.95;1.83;;;;;;;;;;5114836;28;20035;-76
2022/09/09 09:36:07;;;;;;;6.35;1.58;;;;;;;;;;5114686;28;20438;-76
2022/09/09 09:38:34;;;;;;;6.68;1.50;;;;;;;;;;5110023;28;20035;-76
2022/09/09 09:41:00;;;;;;;5.15;1.50;;;;;;;;;;5094301;28;20031;-76
2022/09/09 09:43:33;;;;;;;9.98;1.50;;;;;;;;;;5094228;28;20072;-75
2022/09/09 09:46:00;;;;;;;11.02;1.80;;;;;;;;;;5075831;28;20515;-75
2022/09/09 09:48:26;;;;;;;10.65;1.60;;;;;;;;;;5094072;28;20024;-76
2022/09/09 09:50:53;;;;;;;8.45;1.40;;;;;;;;;;5076064;28;20024;-84
2022/09/09 09:53:22;;;;;;;12.77;1.60;;;;;;;;;;5095013;28;20063;-83
2022/09/09 09:55:54;;;;;;;9.32;1.67;;;;;;;;;;5095093;28;20534;-83
2022/09/09 09:58:20;;;;;;;11.98;1.85;;;;;;;;;;5095023;28;20028;-83
2022/09/09 10:00:50;;;;;;;15.65;1.55;;;;;;;;;;5094017;28;20115;-83
2022/09/09 10:03:27;;;;;;;10.40;2.05;;;;;;;;;;5094251;28;20016;-84
2022/09/09 10:05:54;;;;;;;10.90;1.63;;;;;;;;;;5094794;28;20024;-84
2022/09/09 10:08:20;;;;;;;12.23;1.55;;;;;;;;;;5094752;28;20024;-83
2022/09/09 10:10:50;;;;;;;6.28;1.52;;;;;;;;;;5094748;28;20028;-83
2022/09/09 10:13:21;;;;;;;10.20;1.73;;;;;;;;;;5094548;28;20039;-84
2022/09/09 10:16:08;;;;;;;6.53;1.65;;;;;;;;;;5094749;28;20477;-83
2022/09/09 10:18:42;;;;;;;10.50;1.55;;;;;;;;;;5093986;28;20043;-84
2022/09/09 10:21:21;;;;;;;8.52;1.30;;;;;;;;;;5114853;28;20094;-83
2022/09/09 10:23:53;;;;;;;5.05;1.50;;;;;;;;;;5114975;28;20020;-84
2022/09/09 10:26:19;;;;;;;6.95;1.42;;;;;;;;;;5114584;28;20016;-84
2022/09/09 10:29:03;;;;;;;6.53;1.35;;;;;;;;;;5114869;28;20011;-83
2022/09/09 10:31:38;;;;;;;7.15;1.30;;;;;;;;;;5114836;28;20046;-83
2022/09/09 10:34:11;;;;;;;10.10;1.60;;;;;;;;;;5114590;28;20031;-84
2022/09/09 10:36:41;;;;;;;5.68;1.25;;;;;;;;;;5114435;28;20015;-83
2022/09/09 10:39:26;;;;;;;12.32;2.75;;;;;;;;;;5114722;28;20024;-83
2022/09/09 10:42:07;;;;;;;5.93;1.45;;;;;;;;;;5114544;28;20038;-83
2022/09/09 10:44:42;;;;;;;7.85;1.92;;;;;;;;;;5114557;28;20030;-83
2022/09/09 10:47:15;;;;;;;11.52;1.67;;;;;;;;;;5114555;28;20023;-82
2022/09/09 10:49:49;;;;;;;7.45;1.83;;;;;;;;;;5114935;28;20019;-81
2022/09/09 10:52:24;;;;;;;6.60;1.83;;;;;;;;;;5115268;28;20089;-81
2022/09/09 10:55:01;;;;;;;10.20;2.30;;;;;;;;;;5089954;28;20514;-82
2022/09/09 10:57:34;;;;;;;9.43;2.20;;;;;;;;;;5094065;28;20021;-82
2022/09/09 11:00:04;;;;;;;17.48;2.50;;;;;;;;;;5093878;28;20075;-82
2022/09/09 11:02:31;;;;;;;11.25;2.72;;;;;;;;;;5093957;28;20016;-83
2022/09/09 11:05:07;;;;;;;8.75;2.20;;;;;;;;;;5094018;28;20047;-82
2022/09/09 11:07:46;;;;;;;6.95;2.25;;;;;;;;;;5093943;28;20023;-83
2022/09/09 11:10:24;;;;;;;12.35;2.70;;;;;;;;;;5093552;28;20024;-83
2022/09/09 11:12:52;;;;;;;12.35;3.00;;;;;;;;;;5093203;28;20040;-83
2022/09/09 11:15:22;;;;;;;12.63;2.80;;;;;;;;;;5094540;28;20024;-83
2022/09/09 11:17:54;;;;;;;8.93;2.33;;;;;;;;;;5114020;28;20045;-83
2022/09/09 11:20:21;;;;;;;7.60;2.63;;;;;;;;;;5113861;28;20088;-83
2022/09/09 11:22:56;;;;;;;12.82;2.95;;;;;;;;;;5114016;28;20434;-83
2022/09/09 11:25:34;;;;;;;12.35;2.70;;;;;;;;;;5113856;28;20023;-83
2022/09/09 11:28:11;;;;;;;10.10;2.67;;;;;;;;;;5113749;28;20019;-83
2022/09/09 11:30:46;;;;;;;7.60;2.25;;;;;;;;;;5113821;28;20461;-83
2022/09/09 11:33:21;;;;;;;9.43;2.50;;;;;;;;;;5113621;28;20027;-83
2022/09/09 11:36:02;;;;;;;8.68;1.90;;;;;;;;;;5113656;28;20160;-83
2022/09/09 11:38:28;;;;;;;13.43;2.60;;;;;;;;;;5113648;28;20032;-83
2022/09/09 11:41:14;;;;;;;11.60;3.15;;;;;;;;;;5113499;28;20128;-83
2022/09/09 11:43:40;;;;;;;12.25;2.85;;;;;;;;;;5113299;28;20024;-83
2022/09/09 11:46:07;;;;;;;11.13;2.67;;;;;;;;;;5113392;28;20411;-83
2022/09/09 11:48:45;;;;;;;11.82;2.72;;;;;;;;;;5113454;28;20373;-83
2022/09/09 11:51:13;;;;;;;12.02;2.80;;;;;;;;;;5113434;28;20161;-83
2022/09/09 11:53:51;;;;;;;8.15;2.33;;;;;;;;;;5113214;28;20594;-84
2022/09/09 11:56:28;;;;;;;10.98;2.70;;;;;;;;;;5113341;28;20020;-84
2022/09/09 11:58:58;;;;;;;7.22;1.92;;;;;;;;;;5113182;28;20044;-84
2022/09/09 12:01:43;;;;;;;9.02;2.45;;;;;;;;;;5113171;28;20465;-84
2022/09/09 12:04:09;;;;;;;8.82;2.55;;;;;;;;;;5113044;28;20055;-84
2022/09/09 12:06:46;;;;;;;8.70;2.00;;;;;;;;;;5113123;28;20024;-84
2022/09/09 12:09:15;;;;;;;6.40;1.67;;;;;;;;;;5094685;28;20354;-84
2022/09/09 12:11:41;;;;;;;7.18;1.88;;;;;;;;;;5112982;28;20034;-84
2022/09/09 12:14:19;;;;;;;6.30;1.58;;;;;;;;;;5113092;28;20034;-84
2022/09/09 12:16:45;;;;;;;3.97;1.23;;;;;;;;;;5112948;28;20375;-84
2022/09/09 12:19:15;;;;;;;8.98;1.85;;;;;;;;;;5112993;28;20043;-84
2022/09/09 12:21:41;;;;;;;6.47;1.70;;;;;;;;;;5094511;28;20392;-84
2022/09/09 12:24:07;;;;;;;6.75;1.40;;;;;;;;;;5112203;28;20472;-84
2022/09/09 12:26:57;;;;;;;8.00;1.90;;;;;;;;;;5112669;28;20132;-83
2022/09/09 12:29:39;;;;;;;5.05;1.65;;;;;;;;;;5099926;28;20088;-84
2022/09/09 12:32:10;;;;;;;6.17;1.70;;;;;;;;;;5112690;28;20081;-84
2022/09/09 12:34:36;;;;;;;5.47;1.80;;;;;;;;;;5112700;28;20418;-84
2022/09/09 12:37:05;;;;;;;5.32;1.60;;;;;;;;;;5112767;28;20330;-84
2022/09/09 12:39:37;;;;;;;5.90;1.63;;;;;;;;;;5112613;28;20373;-83
2022/09/09 12:42:04;;;;;;;8.27;1.80;;;;;;;;;;5112482;28;20865;-84
2022/09/09 12:44:32;;;;;;;4.68;1.52;;;;;;;;;;5112617;28;20043;-84
2022/09/09 12:47:00;;;;;;;10.63;1.92;;;;;;;;;;5112582;28;20020;-84
2022/09/09 12:49:29;;;;;;;7.72;1.75;;;;;;;;;;5111604;28;20019;-83
2022/09/09 12:51:57;;;;;;;10.15;1.73;;;;;;;;;;5111869;28;20020;-84
2022/09/09 12:54:23;;;;;;;5.55;1.70;;;;;;;;;;5111464;28;20035;-84
2022/09/09 12:56:50;;;;;;;6.38;1.77;;;;;;;;;;5111486;28;20122;-84
2022/09/09 12:59:27;;;;;;;8.50;1.90;;;;;;;;;;5111257;28;20019;-85
2022/09/09 13:01:56;;;;;;;6.13;1.42;;;;;;;;;;5111397;28;20024;-85
2022/09/09 13:04:22;;;;;;;5.10;1.90;;;;;;;;;;5111450;28;20469;-85
2022/09/09 13:06:49;;;;;;;4.13;1.80;;;;;;;;;;5093024;28;20023;-84
2022/09/09 13:09:15;;;;;;;5.32;1.52;;;;;;;;;;5111568;28;20019;-84
2022/09/09 13:11:47;;;;;;;6.70;1.90;;;;;;;;;;5112260;28;20098;-84
2022/09/09 13:14:18;;;;;;;4.18;1.92;;;;;;;;;;5112350;28;20380;-84
2022/09/09 13:16:44;;;;;;;4.32;1.60;;;;;;;;;;5112159;28;20103;-84
2022/09/09 13:19:15;;;;;;;7.60;2.05;;;;;;;;;;5112374;28;20020;-84
2022/09/09 13:21:42;;;;;;;9.48;1.80;;;;;;;;;;5093779;28;20386;-84
2022/09/09 13:24:29;;;;;;;5.85;1.50;;;;;;;;;;5112304;28;20046;-83
2022/09/09 13:26:56;;;;;;;8.68;1.50;;;;;;;;;;5112284;28;20027;-84
2022/09/09 13:29:22;;;;;;;8.43;1.52;;;;;;;;;;5112271;28;20023;-84
2022/09/09 13:31:52;;;;;;;7.07;1.90;;;;;;;;;;5112060;28;20030;-84
2022/09/09 13:34:32;;;;;;;9.00;1.63;;;;;;;;;;5112358;28;20048;-84
2022/09/09 13:37:02;;;;;;;6.00;1.75;;;;;;;;;;5115069;28;20031;-84
2022/09/09 13:39:28;;;;;;;8.35;1.58;;;;;;;;;;5103741;28;20087;-84
2022/09/09 13:41:54;;;;;;;15.00;2.92;;;;;;;;;;5095082;28;20028;-84
2022/09/09 13:44:26;;;;;;;7.90;1.50;;;;;;;;;;5095233;28;20043;-84
2022/09/09 13:47:03;;;;;;;5.70;1.70;;;;;;;;;;5095140;28;20125;-84
2022/09/09 13:49:30;;;;;;;5.28;1.50;;;;;;;;;;5095077;28;20482;-84
2022/09/09 13:52:13;;;;;;;7.00;1.60;;;;;;;;;;5095038;28;20043;-84
2022/09/09 13:54:39;;;;;;;12.07;1.85;;;;;;;;;;5095140;28;20020;-84
2022/09/09 13:57:06;;;;;;;3.00;1.20;;;;;;;;;;5095024;28;20085;-83
2022/09/09 13:59:32;;;;;;;8.98;1.80;;;;;;;;;;5095284;28;20024;-84
2022/09/09 14:01:59;;;;;;;5.07;1.50;;;;;;;;;;5094820;28;20024;-84
2022/09/09 14:04:25;;;;;;;5.20;1.67;;;;;;;;;;5094729;28;20049;-85
2022/09/09 14:06:51;;;;;;;8.77;1.90;;;;;;;;;;5094809;28;20064;-84
2022/09/09 14:09:18;;;;;;;3.63;1.50;;;;;;;;;;5094798;28;20012;-84
2022/09/09 14:11:46;;;;;;;7.03;2.13;;;;;;;;;;5094535;28;20034;-84
2022/09/09 14:14:12;;;;;;;4.93;1.60;;;;;;;;;;5094754;28;20020;-83
2022/09/09 14:16:38;;;;;;;6.32;1.55;;;;;;;;;;5095832;28;20461;-84
2022/09/09 14:19:04;;;;;;;3.75;1.30;;;;;;;;;;5115032;28;20129;-84
2022/09/09 14:21:30;;;;;;;4.07;1.30;;;;;;;;;;5114931;28;20076;-84
2022/09/09 14:23:57;;;;;;;4.68;1.13;;;;;;;;;;5096403;28;20027;-84
2022/09/09 14:26:24;;;;;;;8.82;1.42;;;;;;;;;;5114994;28;20027;-84
2022/09/09 14:28:51;;;;;;;3.72;1.20;;;;;;;;;;5114749;28;20028;-84
2022/09/09 14:31:17;;;;;;;6.88;1.38;;;;;;;;;;5114790;28;20050;-84
2022/09/09 14:33:44;;;;;;;3.95;1.15;;;;;;;;;;5114693;28;20427;-84
2022/09/09 14:36:10;;;;;;;7.55;1.65;;;;;;;;;;5114771;28;20024;-84
2022/09/09 14:38:41;;;;;;;5.22;1.30;;;;;;;;;;5114597;28;20024;-84
2022/09/09 14:41:08;;;;;;;8.05;1.42;;;;;;;;;;5114435;28;20078;-85
2022/09/09 14:43:34;;;;;;;6.43;1.38;;;;;;;;;;5095968;28;20031;-84
2022/09/09 14:46:10;;;;;;;4.30;1.35;;;;;;;;;;5114560;28;20030;-84
2022/09/09 14:48:36;;;;;;;5.88;1.45;;;;;;;;;;5113801;28;20103;-85
2022/09/09 14:51:13;;;;;;;5.90;1.38;;;;;;;;;;5114424;28;20036;-85